Forbes Park, Colorado
Current Conditions -  °F | °C
As of 1:26 AM on Monday 22 Dec 2014 (Local Time) from KVTP Reporting Station
Overcast Overcast  
Wind Chill: 21°   Ceiling: 3400
Heat Index: 28°   Visibility: 10mi
Dew Point: 21°   Wind: 7mph
Humidity: 74%   Direction: 260°W
Pressure: 29.73"   Gusts: 20mph
Location:  37.4744°N, 105.319°W
Report Text: KVTP 220826Z AUTO 26006G17KT 10SM SCT016 BKN034 OVC055 M02/M06 A2973 RMK AO2
Loading
Personal Weather Stations






























Interactive Weather Map New forecast layout! Learn more

10-Day Weather Forecast

Advertisements
Track Severe Weather on mobile